map of WRT home
WRT - Airport
Location
City:  Warton, Lancashire, England, United Kingdom
Name:Warton Aerodrome
ICAO:EGNO
IATA:WRT

Details
Type:Airport (Aerodrome, Airfield)
Use:Public/Civil
Latitude:5344'42"N (53.745097)
Longitude:252'59"W (-2.883060)
Datum:WGS 1984
Elevation:55 ft (17 m)
Variation:1.63W (WMM2015 magnetic declination)
0.16 annual change
Runways:2
Longest:7946 × 151 ft (2422 × 46 m), paved

Time
Time Zone:UTC+0 (DST+1)
Local Time:

Weather
METAR:EGNO 181320Z 23019KT 200V260 9999 FEW025 SCT036 18/14 Q1002

Related Locations
Nearby:
Farthest:NZBA: 11819 mi / 19021 km
Balclutha, OTA, NZ

Find:

   beyond  
but within

Other Information
Maps:
NOTAMs:
Links:
Sources:

  
  • flag of United Kingdom
  • flag of England
  • flag of Lancashire
  

Sectional Chart

Flight Planning
at skyvector.com

Satellite Image

Google Maps Satellite view

 

Copyright © 2004-2018 Karl L. Swartz. All rights reserved.
The Great Circle Mapper name and logo are trademarks of the Great Circle Mapper.
All other trademarks mentioned herein belong to their respective owners.
Please see credits for attibutions and further copyright information.

  Follow gcmap on Facebook Follow gcmap on Twitter Follow gcmap on Google+ GCmap on LinkedIn

hCard Microformat

Geo Microformat